METAR Data
IDs: Format: Raw Decoded Include TAF

Data at: 2128 UTC 01 Dec 2021

SCFA 012100Z 20013KT 9999 FEW019 18/12 Q1013 NOSIG